sensor_id;sensor_type;location;lat;lon;timestamp;temperature;humidity
25208;DHT22;13153;52.316;21.166;2024-01-15T00:00:03;1.70;99.90
25208;DHT22;13153;52.316;21.166;2024-01-15T00:02:30;1.70;99.90
25208;DHT22;13153;52.316;21.166;2024-01-15T00:04:55;1.70;99.90
25208;DHT22;13153;52.316;21.166;2024-01-15T00:07:21;1.70;99.90
25208;DHT22;13153;52.316;21.166;2024-01-15T00:09:47;1.70;99.90
25208;DHT22;13153;52.316;21.166;2024-01-15T00:12:13;1.70;99.90
25208;DHT22;13153;52.316;21.166;2024-01-15T00:14:38;1.70;99.90
25208;DHT22;13153;52.316;21.166;2024-01-15T00:17:04;1.70;99.90
25208;DHT22;13153;52.316;21.166;2024-01-15T00:19:30;1.70;99.90
25208;DHT22;13153;52.316;21.166;2024-01-15T00:21:57;1.70;99.90
25208;DHT22;13153;52.316;21.166;2024-01-15T00:24:24;1.80;99.90
25208;DHT22;13153;52.316;21.166;2024-01-15T00:26:50;1.80;99.90
25208;DHT22;13153;52.316;21.166;2024-01-15T00:29:16;1.80;99.90
25208;DHT22;13153;52.316;21.166;2024-01-15T00:31:42;1.70;99.90
25208;DHT22;13153;52.316;21.166;2024-01-15T00:34:07;1.80;99.90
25208;DHT22;13153;52.316;21.166;2024-01-15T00:36:33;1.80;99.90
25208;DHT22;13153;52.316;21.166;2024-01-15T00:38:59;1.80;99.90
25208;DHT22;13153;52.316;21.166;2024-01-15T00:41:25;1.80;99.90
25208;DHT22;13153;52.316;21.166;2024-01-15T00:43:53;1.70;99.90
25208;DHT22;13153;52.316;21.166;2024-01-15T00:46:19;1.70;99.90
25208;DHT22;13153;52.316;21.166;2024-01-15T00:48:44;1.70;99.90
25208;DHT22;13153;52.316;21.166;2024-01-15T00:51:10;1.70;99.90
25208;DHT22;13153;52.316;21.166;2024-01-15T00:53:36;1.70;99.90
25208;DHT22;13153;52.316;21.166;2024-01-15T00:56:02;1.80;99.90
25208;DHT22;13153;52.316;21.166;2024-01-15T00:58:28;1.70;99.90
25208;DHT22;13153;52.316;21.166;2024-01-15T01:00:54;1.80;99.90
25208;DHT22;13153;52.316;21.166;2024-01-15T01:03:20;1.80;99.90
25208;DHT22;13153;52.316;21.166;2024-01-15T01:05:48;1.80;99.90
25208;DHT22;13153;52.316;21.166;2024-01-15T01:08:15;1.80;99.90
25208;DHT22;13153;52.316;21.166;2024-01-15T01:10:41;1.70;99.90
25208;DHT22;13153;52.316;21.166;2024-01-15T01:13:08;1.70;99.90
25208;DHT22;13153;52.316;21.166;2024-01-15T01:15:34;1.80;99.90
25208;DHT22;13153;52.316;21.166;2024-01-15T01:18:00;1.80;99.90
25208;DHT22;13153;52.316;21.166;2024-01-15T01:20:26;1.80;99.90
25208;DHT22;13153;52.316;21.166;2024-01-15T01:22:51;1.70;99.90
25208;DHT22;13153;52.316;21.166;2024-01-15T01:25:17;1.70;99.90
25208;DHT22;13153;52.316;21.166;2024-01-15T01:27:43;1.70;99.90
25208;DHT22;13153;52.316;21.166;2024-01-15T01:30:09;1.60;99.90
25208;DHT22;13153;52.316;21.166;2024-01-15T01:32:35;1.60;99.90
25208;DHT22;13153;52.316;21.166;2024-01-15T01:35:01;1.70;99.90
25208;DHT22;13153;52.316;21.166;2024-01-15T01:37:27;1.70;99.90
25208;DHT22;13153;52.316;21.166;2024-01-15T01:39:53;1.70;99.90
25208;DHT22;13153;52.316;21.166;2024-01-15T01:42:18;1.70;99.90
25208;DHT22;13153;52.316;21.166;2024-01-15T01:44:44;1.60;99.90
25208;DHT22;13153;52.316;21.166;2024-01-15T01:47:10;1.60;99.90
25208;DHT22;13153;52.316;21.166;2024-01-15T01:49:37;1.60;99.90
25208;DHT22;13153;52.316;21.166;2024-01-15T01:52:04;1.60;99.90
25208;DHT22;13153;52.316;21.166;2024-01-15T01:54:32;1.60;99.90
25208;DHT22;13153;52.316;21.166;2024-01-15T01:56:59;1.60;99.90
25208;DHT22;13153;52.316;21.166;2024-01-15T01:59:29;1.60;99.90
25208;DHT22;13153;52.316;21.166;2024-01-15T02:01:56;1.60;99.90
25208;DHT22;13153;52.316;21.166;2024-01-15T02:04:24;1.60;99.90
25208;DHT22;13153;52.316;21.166;2024-01-15T02:06:51;1.60;99.90
25208;DHT22;13153;52.316;21.166;2024-01-15T02:09:19;1.60;99.90
25208;DHT22;13153;52.316;21.166;2024-01-15T02:11:49;1.60;99.90
25208;DHT22;13153;52.316;21.166;2024-01-15T02:14:15;1.60;99.90
25208;DHT22;13153;52.316;21.166;2024-01-15T02:16:41;1.60;99.90
25208;DHT22;13153;52.316;21.166;2024-01-15T02:19:07;1.60;99.90
25208;DHT22;13153;52.316;21.166;2024-01-15T02:21:33;1.60;99.90
25208;DHT22;13153;52.316;21.166;2024-01-15T02:23:59;1.60;99.90
25208;DHT22;13153;52.316;21.166;2024-01-15T02:26:25;1.70;99.90
25208;DHT22;13153;52.316;21.166;2024-01-15T02:28:51;1.60;99.90
25208;DHT22;13153;52.316;21.166;2024-01-15T02:31:17;1.60;99.90
25208;DHT22;13153;52.316;21.166;2024-01-15T02:33:43;1.60;99.90
25208;DHT22;13153;52.316;21.166;2024-01-15T02:36:11;1.70;99.90
25208;DHT22;13153;52.316;21.166;2024-01-15T02:38:37;1.70;99.90
25208;DHT22;13153;52.316;21.166;2024-01-15T02:41:03;1.70;99.90
25208;DHT22;13153;52.316;21.166;2024-01-15T02:43:29;1.60;99.90
25208;DHT22;13153;52.316;21.166;2024-01-15T02:45:55;1.70;99.90
25208;DHT22;13153;52.316;21.166;2024-01-15T02:48:20;1.70;99.90
25208;DHT22;13153;52.316;21.166;2024-01-15T02:50:46;1.70;99.90
25208;DHT22;13153;52.316;21.166;2024-01-15T02:53:12;1.70;99.90
25208;DHT22;13153;52.316;21.166;2024-01-15T02:55:38;1.70;99.90
25208;DHT22;13153;52.316;21.166;2024-01-15T02:58:04;1.70;99.90
25208;DHT22;13153;52.316;21.166;2024-01-15T03:00:30;1.70;99.90
25208;DHT22;13153;52.316;21.166;2024-01-15T03:02:56;1.70;99.90
25208;DHT22;13153;52.316;21.166;2024-01-15T03:05:22;1.70;99.90
25208;DHT22;13153;52.316;21.166;2024-01-15T03:07:48;1.60;99.90
25208;DHT22;13153;52.316;21.166;2024-01-15T03:10:13;1.70;99.90
25208;DHT22;13153;52.316;21.166;2024-01-15T03:12:39;1.70;99.90
25208;DHT22;13153;52.316;21.166;2024-01-15T03:15:05;1.70;99.90
25208;DHT22;13153;52.316;21.166;2024-01-15T03:17:31;1.70;99.90
25208;DHT22;13153;52.316;21.166;2024-01-15T03:19:57;1.60;99.90
25208;DHT22;13153;52.316;21.166;2024-01-15T03:22:22;1.60;99.90
25208;DHT22;13153;52.316;21.166;2024-01-15T03:24:48;1.60;99.90
25208;DHT22;13153;52.316;21.166;2024-01-15T03:27:14;1.60;99.90
25208;DHT22;13153;52.316;21.166;2024-01-15T03:29:40;1.70;99.90
25208;DHT22;13153;52.316;21.166;2024-01-15T03:32:06;1.70;99.90
25208;DHT22;13153;52.316;21.166;2024-01-15T03:34:32;1.60;99.90
25208;DHT22;13153;52.316;21.166;2024-01-15T03:36:58;1.60;99.90
25208;DHT22;13153;52.316;21.166;2024-01-15T03:39:24;1.60;99.90
25208;DHT22;13153;52.316;21.166;2024-01-15T03:41:50;1.60;99.90
25208;DHT22;13153;52.316;21.166;2024-01-15T03:44:16;1.60;99.90
25208;DHT22;13153;52.316;21.166;2024-01-15T03:46:42;1.60;99.90
25208;DHT22;13153;52.316;21.166;2024-01-15T03:49:08;1.60;99.90
25208;DHT22;13153;52.316;21.166;2024-01-15T03:51:33;1.60;99.90
25208;DHT22;13153;52.316;21.166;2024-01-15T03:53:59;1.60;99.90
25208;DHT22;13153;52.316;21.166;2024-01-15T03:56:25;1.60;99.90
25208;DHT22;13153;52.316;21.166;2024-01-15T03:58:51;1.60;99.90
25208;DHT22;13153;52.316;21.166;2024-01-15T04:01:16;1.60;99.90
25208;DHT22;13153;52.316;21.166;2024-01-15T04:03:42;1.60;99.90
25208;DHT22;13153;52.316;21.166;2024-01-15T04:06:08;1.60;99.90
25208;DHT22;13153;52.316;21.166;2024-01-15T04:08:33;1.50;99.90
25208;DHT22;13153;52.316;21.166;2024-01-15T04:10:59;1.60;99.90
25208;DHT22;13153;52.316;21.166;2024-01-15T04:13:25;1.50;99.90
25208;DHT22;13153;52.316;21.166;2024-01-15T04:15:51;1.60;99.90
25208;DHT22;13153;52.316;21.166;2024-01-15T04:18:17;1.60;99.90
25208;DHT22;13153;52.316;21.166;2024-01-15T04:20:45;1.60;99.90
25208;DHT22;13153;52.316;21.166;2024-01-15T04:23:11;1.50;99.90
25208;DHT22;13153;52.316;21.166;2024-01-15T04:25:36;1.50;99.90
25208;DHT22;13153;52.316;21.166;2024-01-15T04:28:02;1.50;99.90
25208;DHT22;13153;52.316;21.166;2024-01-15T04:30:28;1.50;99.90
25208;DHT22;13153;52.316;21.166;2024-01-15T04:32:54;1.50;99.90
25208;DHT22;13153;52.316;21.166;2024-01-15T04:35:20;1.50;99.90
25208;DHT22;13153;52.316;21.166;2024-01-15T04:37:45;1.50;99.90
25208;DHT22;13153;52.316;21.166;2024-01-15T04:40:11;1.50;99.90
25208;DHT22;13153;52.316;21.166;2024-01-15T04:42:37;1.50;99.90
25208;DHT22;13153;52.316;21.166;2024-01-15T04:45:03;1.60;99.90
25208;DHT22;13153;52.316;21.166;2024-01-15T04:47:29;1.60;99.90
25208;DHT22;13153;52.316;21.166;2024-01-15T04:49:55;1.60;99.90
25208;DHT22;13153;52.316;21.166;2024-01-15T04:52:21;1.50;99.90
25208;DHT22;13153;52.316;21.166;2024-01-15T04:54:46;1.50;99.90
25208;DHT22;13153;52.316;21.166;2024-01-15T04:57:12;1.50;99.90
25208;DHT22;13153;52.316;21.166;2024-01-15T04:59:38;1.50;99.90
25208;DHT22;13153;52.316;21.166;2024-01-15T05:02:05;1.60;99.90
25208;DHT22;13153;52.316;21.166;2024-01-15T05:04:30;1.50;99.90
25208;DHT22;13153;52.316;21.166;2024-01-15T05:06:56;1.50;99.90
25208;DHT22;13153;52.316;21.166;2024-01-15T05:09:22;1.60;99.90
25208;DHT22;13153;52.316;21.166;2024-01-15T05:11:47;1.60;99.90
25208;DHT22;13153;52.316;21.166;2024-01-15T05:14:13;1.60;99.90
25208;DHT22;13153;52.316;21.166;2024-01-15T05:16:40;1.50;99.90
25208;DHT22;13153;52.316;21.166;2024-01-15T05:19:12;1.60;99.90
25208;DHT22;13153;52.316;21.166;2024-01-15T05:21:37;1.50;99.90
25208;DHT22;13153;52.316;21.166;2024-01-15T05:24:03;1.60;99.90
25208;DHT22;13153;52.316;21.166;2024-01-15T05:26:29;1.60;99.90
25208;DHT22;13153;52.316;21.166;2024-01-15T05:28:55;1.60;99.90
25208;DHT22;13153;52.316;21.166;2024-01-15T05:31:20;1.60;99.90
25208;DHT22;13153;52.316;21.166;2024-01-15T05:33:46;1.60;99.90
25208;DHT22;13153;52.316;21.166;2024-01-15T05:36:12;1.60;99.90
25208;DHT22;13153;52.316;21.166;2024-01-15T05:38:38;1.60;99.90
25208;DHT22;13153;52.316;21.166;2024-01-15T05:41:05;1.60;99.90
25208;DHT22;13153;52.316;21.166;2024-01-15T05:43:30;1.60;99.90
25208;DHT22;13153;52.316;21.166;2024-01-15T05:45:57;1.60;99.90
25208;DHT22;13153;52.316;21.166;2024-01-15T05:48:23;1.60;99.90
25208;DHT22;13153;52.316;21.166;2024-01-15T05:50:49;1.60;99.90
25208;DHT22;13153;52.316;21.166;2024-01-15T05:53:15;1.60;99.90
25208;DHT22;13153;52.316;21.166;2024-01-15T05:55:41;1.60;99.90
25208;DHT22;13153;52.316;21.166;2024-01-15T05:58:06;1.60;99.90
25208;DHT22;13153;52.316;21.166;2024-01-15T06:00:32;1.60;99.90
25208;DHT22;13153;52.316;21.166;2024-01-15T06:03:01;1.60;99.90
25208;DHT22;13153;52.316;21.166;2024-01-15T06:05:27;1.60;99.90
25208;DHT22;13153;52.316;21.166;2024-01-15T06:07:53;1.60;99.90
25208;DHT22;13153;52.316;21.166;2024-01-15T06:10:18;1.60;99.90
25208;DHT22;13153;52.316;21.166;2024-01-15T06:12:44;1.60;99.90
25208;DHT22;13153;52.316;21.166;2024-01-15T06:15:10;1.60;99.90
25208;DHT22;13153;52.316;21.166;2024-01-15T06:17:37;1.60;99.90
25208;DHT22;13153;52.316;21.166;2024-01-15T06:20:03;1.60;99.90
25208;DHT22;13153;52.316;21.166;2024-01-15T06:22:29;1.60;99.90
25208;DHT22;13153;52.316;21.166;2024-01-15T06:24:55;1.60;99.90
25208;DHT22;13153;52.316;21.166;2024-01-15T06:27:21;1.60;99.90
25208;DHT22;13153;52.316;21.166;2024-01-15T06:29:47;1.60;99.90
25208;DHT22;13153;52.316;21.166;2024-01-15T06:32:13;1.60;99.90
25208;DHT22;13153;52.316;21.166;2024-01-15T06:34:39;1.50;99.90
25208;DHT22;13153;52.316;21.166;2024-01-15T06:37:06;1.60;99.90
25208;DHT22;13153;52.316;21.166;2024-01-15T06:39:31;1.60;99.90
25208;DHT22;13153;52.316;21.166;2024-01-15T06:41:57;1.60;99.90
25208;DHT22;13153;52.316;21.166;2024-01-15T06:44:23;1.60;99.90
25208;DHT22;13153;52.316;21.166;2024-01-15T06:46:49;1.60;99.90
25208;DHT22;13153;52.316;21.166;2024-01-15T06:49:14;1.60;99.90
25208;DHT22;13153;52.316;21.166;2024-01-15T06:51:40;1.60;99.90
25208;DHT22;13153;52.316;21.166;2024-01-15T06:54:07;1.60;99.90
25208;DHT22;13153;52.316;21.166;2024-01-15T06:56:33;1.60;99.90
25208;DHT22;13153;52.316;21.166;2024-01-15T06:58:58;1.60;99.90
25208;DHT22;13153;52.316;21.166;2024-01-15T07:01:24;1.60;99.90
25208;DHT22;13153;52.316;21.166;2024-01-15T07:03:50;1.60;99.90
25208;DHT22;13153;52.316;21.166;2024-01-15T07:06:16;1.60;99.90
25208;DHT22;13153;52.316;21.166;2024-01-15T07:08:42;1.60;99.90
25208;DHT22;13153;52.316;21.166;2024-01-15T07:11:08;1.60;99.90
25208;DHT22;13153;52.316;21.166;2024-01-15T07:13:35;1.60;99.90
25208;DHT22;13153;52.316;21.166;2024-01-15T07:16:02;1.60;99.90
25208;DHT22;13153;52.316;21.166;2024-01-15T07:18:28;1.60;99.90
25208;DHT22;13153;52.316;21.166;2024-01-15T07:20:53;1.60;99.90
25208;DHT22;13153;52.316;21.166;2024-01-15T07:23:19;1.60;99.90
25208;DHT22;13153;52.316;21.166;2024-01-15T07:25:45;1.60;99.90
25208;DHT22;13153;52.316;21.166;2024-01-15T07:28:11;1.60;99.90
25208;DHT22;13153;52.316;21.166;2024-01-15T07:30:37;1.60;99.90
25208;DHT22;13153;52.316;21.166;2024-01-15T07:33:04;1.60;99.90
25208;DHT22;13153;52.316;21.166;2024-01-15T07:35:30;1.60;99.90
25208;DHT22;13153;52.316;21.166;2024-01-15T07:37:57;1.60;99.90
25208;DHT22;13153;52.316;21.166;2024-01-15T07:40:23;1.60;99.90
25208;DHT22;13153;52.316;21.166;2024-01-15T07:42:50;1.60;99.90
25208;DHT22;13153;52.316;21.166;2024-01-15T07:45:17;1.70;99.90
25208;DHT22;13153;52.316;21.166;2024-01-15T07:47:43;1.70;99.90
25208;DHT22;13153;52.316;21.166;2024-01-15T07:50:09;1.70;99.90
25208;DHT22;13153;52.316;21.166;2024-01-15T07:52:35;1.60;99.90
25208;DHT22;13153;52.316;21.166;2024-01-15T07:55:01;1.60;99.90
25208;DHT22;13153;52.316;21.166;2024-01-15T07:57:29;1.60;99.90
25208;DHT22;13153;52.316;21.166;2024-01-15T07:59:55;1.60;99.90
25208;DHT22;13153;52.316;21.166;2024-01-15T08:02:20;1.60;99.90
25208;DHT22;13153;52.316;21.166;2024-01-15T08:04:47;1.50;99.90
25208;DHT22;13153;52.316;21.166;2024-01-15T08:07:13;1.50;99.90
25208;DHT22;13153;52.316;21.166;2024-01-15T08:09:39;1.50;99.90
25208;DHT22;13153;52.316;21.166;2024-01-15T08:12:05;1.50;99.90
25208;DHT22;13153;52.316;21.166;2024-01-15T08:14:31;1.60;99.90
25208;DHT22;13153;52.316;21.166;2024-01-15T08:16:57;1.60;99.90
25208;DHT22;13153;52.316;21.166;2024-01-15T08:19:23;1.60;99.90
25208;DHT22;13153;52.316;21.166;2024-01-15T08:21:49;1.60;99.90
25208;DHT22;13153;52.316;21.166;2024-01-15T08:24:15;1.60;99.90
25208;DHT22;13153;52.316;21.166;2024-01-15T08:26:42;1.60;99.90
25208;DHT22;13153;52.316;21.166;2024-01-15T08:29:08;1.50;99.90
25208;DHT22;13153;52.316;21.166;2024-01-15T08:31:34;1.50;99.90
25208;DHT22;13153;52.316;21.166;2024-01-15T08:33:59;1.50;99.90
25208;DHT22;13153;52.316;21.166;2024-01-15T08:36:27;1.50;99.90
25208;DHT22;13153;52.316;21.166;2024-01-15T08:38:55;1.40;99.90
25208;DHT22;13153;52.316;21.166;2024-01-15T08:41:20;1.50;99.90
25208;DHT22;13153;52.316;21.166;2024-01-15T08:43:46;1.60;99.90
25208;DHT22;13153;52.316;21.166;2024-01-15T08:46:12;1.80;99.90
25208;DHT22;13153;52.316;21.166;2024-01-15T08:48:38;2.00;99.90
25208;DHT22;13153;52.316;21.166;2024-01-15T08:51:05;2.10;99.90
25208;DHT22;13153;52.316;21.166;2024-01-15T08:53:31;2.20;99.90
25208;DHT22;13153;52.316;21.166;2024-01-15T08:55:58;2.40;99.90
25208;DHT22;13153;52.316;21.166;2024-01-15T08:58:24;2.50;99.90
25208;DHT22;13153;52.316;21.166;2024-01-15T09:00:50;2.50;97.40
25208;DHT22;13153;52.316;21.166;2024-01-15T09:03:16;2.40;96.60
25208;DHT22;13153;52.316;21.166;2024-01-15T09:05:42;2.30;92.80
25208;DHT22;13153;52.316;21.166;2024-01-15T09:08:09;2.20;94.50
25208;DHT22;13153;52.316;21.166;2024-01-15T09:10:35;2.10;99.90
25208;DHT22;13153;52.316;21.166;2024-01-15T09:13:01;2.00;99.90
25208;DHT22;13153;52.316;21.166;2024-01-15T09:15:26;1.90;99.90
25208;DHT22;13153;52.316;21.166;2024-01-15T09:17:53;1.90;99.90
25208;DHT22;13153;52.316;21.166;2024-01-15T09:20:18;1.80;99.90
25208;DHT22;13153;52.316;21.166;2024-01-15T09:22:44;1.80;99.90
25208;DHT22;13153;52.316;21.166;2024-01-15T09:25:10;1.70;99.90
25208;DHT22;13153;52.316;21.166;2024-01-15T09:27:36;1.80;99.90
25208;DHT22;13153;52.316;21.166;2024-01-15T09:30:06;1.80;99.90
25208;DHT22;13153;52.316;21.166;2024-01-15T09:32:32;1.80;99.90
25208;DHT22;13153;52.316;21.166;2024-01-15T09:34:58;1.90;99.90
25208;DHT22;13153;52.316;21.166;2024-01-15T09:37:24;1.80;99.90
25208;DHT22;13153;52.316;21.166;2024-01-15T09:39:49;1.90;99.90
25208;DHT22;13153;52.316;21.166;2024-01-15T09:42:16;2.00;99.90
25208;DHT22;13153;52.316;21.166;2024-01-15T09:44:42;2.10;99.90
25208;DHT22;13153;52.316;21.166;2024-01-15T09:47:08;2.20;99.90
25208;DHT22;13153;52.316;21.166;2024-01-15T09:49:35;2.30;99.90
25208;DHT22;13153;52.316;21.166;2024-01-15T09:52:02;2.20;97.40
25208;DHT22;13153;52.316;21.166;2024-01-15T09:54:29;2.20;97.50
25208;DHT22;13153;52.316;21.166;2024-01-15T09:56:57;2.20;98.80
25208;DHT22;13153;52.316;21.166;2024-01-15T09:59:26;2.20;97.10
25208;DHT22;13153;52.316;21.166;2024-01-15T10:01:53;2.20;91.80
25208;DHT22;13153;52.316;21.166;2024-01-15T10:04:21;2.20;86.30
25208;DHT22;13153;52.316;21.166;2024-01-15T10:06:47;2.20;91.10
25208;DHT22;13153;52.316;21.166;2024-01-15T10:09:17;2.20;79.70
25208;DHT22;13153;52.316;21.166;2024-01-15T10:11:44;2.20;75.50
25208;DHT22;13153;52.316;21.166;2024-01-15T10:14:10;2.30;65.90
25208;DHT22;13153;52.316;21.166;2024-01-15T10:16:40;2.20;52.00
25208;DHT22;13153;52.316;21.166;2024-01-15T10:19:07;2.10;37.50
25208;DHT22;13153;52.316;21.166;2024-01-15T10:21:34;2.10;37.60
25208;DHT22;13153;52.316;21.166;2024-01-15T10:24:01;2.10;39.50
25208;DHT22;13153;52.316;21.166;2024-01-15T10:26:29;2.20;48.40
25208;DHT22;13153;52.316;21.166;2024-01-15T10:28:55;2.20;30.90
25208;DHT22;13153;52.316;21.166;2024-01-15T10:31:21;2.20;21.70
25208;DHT22;13153;52.316;21.166;2024-01-15T10:33:48;2.10;35.50
25208;DHT22;13153;52.316;21.166;2024-01-15T10:36:16;2.20;29.80
25208;DHT22;13153;52.316;21.166;2024-01-15T10:38:46;2.30;41.00
25208;DHT22;13153;52.316;21.166;2024-01-15T10:41:12;2.20;10.00
25208;DHT22;13153;52.316;21.166;2024-01-15T10:43:38;2.20;1.00
25208;DHT22;13153;52.316;21.166;2024-01-15T10:46:07;2.20;6.20
25208;DHT22;13153;52.316;21.166;2024-01-15T10:48:34;2.20;27.50
25208;DHT22;13153;52.316;21.166;2024-01-15T10:51:01;2.20;23.20
25208;DHT22;13153;52.316;21.166;2024-01-15T10:53:38;2.20;25.90
25208;DHT22;13153;52.316;21.166;2024-01-15T10:56:06;2.30;35.90
25208;DHT22;13153;52.316;21.166;2024-01-15T10:58:33;2.30;33.80
25208;DHT22;13153;52.316;21.166;2024-01-15T11:01:01;2.30;31.40
25208;DHT22;13153;52.316;21.166;2024-01-15T11:03:28;2.20;41.00
25208;DHT22;13153;52.316;21.166;2024-01-15T11:05:54;2.20;37.80
25208;DHT22;13153;52.316;21.166;2024-01-15T11:08:20;2.30;42.50
25208;DHT22;13153;52.316;21.166;2024-01-15T11:10:48;2.20;26.30
25208;DHT22;13153;52.316;21.166;2024-01-15T11:13:20;2.20;38.20
25208;DHT22;13153;52.316;21.166;2024-01-15T11:16:03;2.20;42.10
25208;DHT22;13153;52.316;21.166;2024-01-15T11:18:37;2.10;49.10
25208;DHT22;13153;52.316;21.166;2024-01-15T11:29:08;2.10;75.20
25208;DHT22;13153;52.316;21.166;2024-01-15T11:34:08;2.10;61.80
25208;DHT22;13153;52.316;21.166;2024-01-15T11:42:03;2.10;64.40
25208;DHT22;13153;52.316;21.166;2024-01-15T11:44:30;2.20;50.50
25208;DHT22;13153;52.316;21.166;2024-01-15T11:46:59;2.20;40.60
25208;DHT22;13153;52.316;21.166;2024-01-15T11:50:03;2.20;26.00
25208;DHT22;13153;52.316;21.166;2024-01-15T11:52:37;2.20;29.70
25208;DHT22;13153;52.316;21.166;2024-01-15T11:57:49;2.10;65.30
25208;DHT22;13153;52.316;21.166;2024-01-15T12:00:16;2.10;93.30
25208;DHT22;13153;52.316;21.166;2024-01-15T12:02:45;2.10;98.60
25208;DHT22;13153;52.316;21.166;2024-01-15T12:05:17;2.00;99.90
25208;DHT22;13153;52.316;21.166;2024-01-15T12:07:46;2.00;99.90
25208;DHT22;13153;52.316;21.166;2024-01-15T12:10:17;2.10;99.90
25208;DHT22;13153;52.316;21.166;2024-01-15T12:13:13;2.20;90.80
25208;DHT22;13153;52.316;21.166;2024-01-15T12:15:41;2.20;74.80
25208;DHT22;13153;52.316;21.166;2024-01-15T12:18:09;2.30;65.10
25208;DHT22;13153;52.316;21.166;2024-01-15T12:20:37;2.30;40.30
25208;DHT22;13153;52.316;21.166;2024-01-15T12:23:03;2.20;32.40
25208;DHT22;13153;52.316;21.166;2024-01-15T12:25:30;2.20;39.80
25208;DHT22;13153;52.316;21.166;2024-01-15T12:27:56;2.30;46.40
25208;DHT22;13153;52.316;21.166;2024-01-15T12:30:23;2.30;40.70
25208;DHT22;13153;52.316;21.166;2024-01-15T12:32:48;2.20;44.30
25208;DHT22;13153;52.316;21.166;2024-01-15T12:35:14;2.20;50.00
25208;DHT22;13153;52.316;21.166;2024-01-15T12:37:42;2.10;66.70
25208;DHT22;13153;52.316;21.166;2024-01-15T12:40:09;2.10;87.10
25208;DHT22;13153;52.316;21.166;2024-01-15T12:42:36;2.10;85.80
25208;DHT22;13153;52.316;21.166;2024-01-15T12:45:04;2.00;91.20
25208;DHT22;13153;52.316;21.166;2024-01-15T12:47:31;2.00;89.30
25208;DHT22;13153;52.316;21.166;2024-01-15T12:49:58;2.10;82.80
25208;DHT22;13153;52.316;21.166;2024-01-15T12:52:26;2.00;98.10
25208;DHT22;13153;52.316;21.166;2024-01-15T12:54:56;1.90;99.90
25208;DHT22;13153;52.316;21.166;2024-01-15T12:57:22;1.80;99.90
25208;DHT22;13153;52.316;21.166;2024-01-15T12:59:49;1.70;99.90
25208;DHT22;13153;52.316;21.166;2024-01-15T13:02:15;1.70;99.90
25208;DHT22;13153;52.316;21.166;2024-01-15T13:04:42;1.70;99.90
25208;DHT22;13153;52.316;21.166;2024-01-15T13:07:08;1.70;99.90
25208;DHT22;13153;52.316;21.166;2024-01-15T13:09:35;1.70;99.90
25208;DHT22;13153;52.316;21.166;2024-01-15T13:12:04;1.70;99.90
25208;DHT22;13153;52.316;21.166;2024-01-15T13:14:31;1.70;99.90
25208;DHT22;13153;52.316;21.166;2024-01-15T13:16:58;1.70;99.90
25208;DHT22;13153;52.316;21.166;2024-01-15T13:19:24;1.80;99.90
25208;DHT22;13153;52.316;21.166;2024-01-15T13:21:50;1.70;99.90
25208;DHT22;13153;52.316;21.166;2024-01-15T13:24:17;1.70;99.90
25208;DHT22;13153;52.316;21.166;2024-01-15T13:26:43;1.70;99.90
25208;DHT22;13153;52.316;21.166;2024-01-15T13:29:09;1.70;99.90
25208;DHT22;13153;52.316;21.166;2024-01-15T13:31:35;1.60;99.90
25208;DHT22;13153;52.316;21.166;2024-01-15T13:34:01;1.60;99.90
25208;DHT22;13153;52.316;21.166;2024-01-15T13:36:27;1.60;99.90
25208;DHT22;13153;52.316;21.166;2024-01-15T13:38:53;1.60;99.90
25208;DHT22;13153;52.316;21.166;2024-01-15T13:41:20;1.60;99.90
25208;DHT22;13153;52.316;21.166;2024-01-15T13:43:54;1.60;99.90
25208;DHT22;13153;52.316;21.166;2024-01-15T13:46:24;1.60;99.90
25208;DHT22;13153;52.316;21.166;2024-01-15T13:48:53;1.60;99.90
25208;DHT22;13153;52.316;21.166;2024-01-15T13:51:22;1.60;99.90
25208;DHT22;13153;52.316;21.166;2024-01-15T13:53:49;1.60;99.90
25208;DHT22;13153;52.316;21.166;2024-01-15T13:56:16;1.60;99.90
25208;DHT22;13153;52.316;21.166;2024-01-15T13:58:42;1.70;99.90
25208;DHT22;13153;52.316;21.166;2024-01-15T14:01:08;1.60;99.90
25208;DHT22;13153;52.316;21.166;2024-01-15T14:03:34;1.70;99.90
25208;DHT22;13153;52.316;21.166;2024-01-15T14:06:01;1.60;99.90
25208;DHT22;13153;52.316;21.166;2024-01-15T14:08:34;1.70;99.90
25208;DHT22;13153;52.316;21.166;2024-01-15T14:11:02;1.70;99.90
25208;DHT22;13153;52.316;21.166;2024-01-15T14:13:31;1.60;99.90
25208;DHT22;13153;52.316;21.166;2024-01-15T14:15:57;1.70;99.90
25208;DHT22;13153;52.316;21.166;2024-01-15T14:18:23;1.70;99.90
25208;DHT22;13153;52.316;21.166;2024-01-15T14:20:49;1.60;99.90
25208;DHT22;13153;52.316;21.166;2024-01-15T14:23:14;1.60;99.90
25208;DHT22;13153;52.316;21.166;2024-01-15T14:25:40;1.70;99.90
25208;DHT22;13153;52.316;21.166;2024-01-15T14:28:06;1.60;99.90
25208;DHT22;13153;52.316;21.166;2024-01-15T14:30:32;1.60;99.90
25208;DHT22;13153;52.316;21.166;2024-01-15T14:32:58;1.60;99.90
25208;DHT22;13153;52.316;21.166;2024-01-15T14:35:23;1.70;99.90
25208;DHT22;13153;52.316;21.166;2024-01-15T14:37:49;1.70;99.90
25208;DHT22;13153;52.316;21.166;2024-01-15T14:40:15;1.70;99.90
25208;DHT22;13153;52.316;21.166;2024-01-15T14:42:41;1.70;99.90
25208;DHT22;13153;52.316;21.166;2024-01-15T14:45:08;1.70;99.20
25208;DHT22;13153;52.316;21.166;2024-01-15T14:47:37;1.70;96.70
25208;DHT22;13153;52.316;21.166;2024-01-15T14:50:08;1.70;99.00
25208;DHT22;13153;52.316;21.166;2024-01-15T14:52:35;1.70;98.70
25208;DHT22;13153;52.316;21.166;2024-01-15T14:55:02;1.70;98.10
25208;DHT22;13153;52.316;21.166;2024-01-15T14:57:27;1.70;92.10
25208;DHT22;13153;52.316;21.166;2024-01-15T14:59:53;1.70;98.20
25208;DHT22;13153;52.316;21.166;2024-01-15T15:02:19;1.70;98.90
25208;DHT22;13153;52.316;21.166;2024-01-15T15:04:46;1.70;98.20
25208;DHT22;13153;52.316;21.166;2024-01-15T15:07:12;1.70;98.10
25208;DHT22;13153;52.316;21.166;2024-01-15T15:09:39;1.80;99.90
25208;DHT22;13153;52.316;21.166;2024-01-15T15:12:05;1.70;99.90
25208;DHT22;13153;52.316;21.166;2024-01-15T15:14:32;1.60;99.90
25208;DHT22;13153;52.316;21.166;2024-01-15T15:17:06;1.60;99.90
25208;DHT22;13153;52.316;21.166;2024-01-15T15:19:32;1.50;99.90
25208;DHT22;13153;52.316;21.166;2024-01-15T15:21:58;1.50;99.90
25208;DHT22;13153;52.316;21.166;2024-01-15T15:24:24;1.40;99.90
25208;DHT22;13153;52.316;21.166;2024-01-15T15:26:51;1.40;99.90
25208;DHT22;13153;52.316;21.166;2024-01-15T15:29:17;1.40;99.90
25208;DHT22;13153;52.316;21.166;2024-01-15T15:31:43;1.40;99.90
25208;DHT22;13153;52.316;21.166;2024-01-15T15:34:09;1.40;99.90
25208;DHT22;13153;52.316;21.166;2024-01-15T15:36:35;1.40;99.90
25208;DHT22;13153;52.316;21.166;2024-01-15T15:39:01;1.40;99.90
25208;DHT22;13153;52.316;21.166;2024-01-15T15:41:27;1.40;99.90
25208;DHT22;13153;52.316;21.166;2024-01-15T15:43:55;1.40;98.80